Главная страница
METAR-TAF:

METAR-TAF

Аэропорты :

Náměšť nad Oslavou, Чехия

широта: 49-09-57N, долгота: 16-07-30E, высота над уровнем моря: 472 м

Текущие метеонаблюдения

Эта сводка был подготовлена 52 минут назад, в 19:00 UTC
Ветер 12 Узел от северно-северо-западный
Температура 21°C
Влажность 56%
Давление 1014 hPa
Видимость 10 км и более
Нет облачности ниже 1500 м, и нет кучево-дождевой облачности

METAR: LKNA 181900Z 34012KT CAVOK 21/12 Q1014 NOSIG RMK BLU BLU

Время: 21:52 (19:52 UTC)

Прогноз

Эта сводка был подготовлена 2 часа и 52 минут назад, в 17:00 UTC
Прогноз действительный с 18-го 18 UTC до 19-го 18 UTC
Ветер 16 Узел от северо-западный
Видимость 10 км и более
Отдельные облака на высоте 4000 фута
временами
С 19-го 10 UTC до 19-го 18 UTC
Ветер 16 Узел от северо-западный с порывами до 26 Узел

TAF: LKNA 181700Z 1818/1918 32016KT 9999 SCT040 TEMPO 1910/1918 32016G26KT

Метеонаблюдения и прогнозы для более 4000 аэропортов (сводки METAR и TAF).

Имеющиеся станции представлены на карте желтыми и красными точками.

Чтобы увидеть название станции, наведите на нее мышь.

Затем щелкните, чтобы увидеть метеонаблюдения и метеопрогнозы.

Управление картой: чтобы увеличить масштаб, щелкните зеленые кнопки с черным крестиком; чтобы уменьшить масштаб, щелкните зеленую кнопку с тире; для просмотра соседних карт щелкайте зеленые стрелки.


METAR-TAF: